首页
METAR-TAF:

METAR-TAF

机场 :

托尔马切沃机场

新西伯利亚, 俄罗斯

纬度: 55-01N, 经度: 082-38E, 海拔: 111米

当前天气观测

该预报发布于35分钟前的17:00 UTC
风速4节,风向西
温度 7°C
湿度 81%
气压 1008 hPa
能见度10公里或以上
散云层高于5300英尺, 积雨云.

METAR: UNNT 041700Z 26002MPS 9999 SCT053CB 07/04 Q1008 R25/090070 R16/090070 NOSIG RMK QFE746/0995

时间: 00:35 (17:35 UTC)

预报

该预报发布于3小时和35分钟前的14:00 UTC
预报有效从04日的 15点(UTC)到 05日的 15点(UTC)
风速6节,风向西,有时为16节阵风
能见度10公里或以上
多云层高于4000英尺, 积雨云.
几率 40% :
短暂存在
从 04日的 15点(UTC)到 04日的 20点(UTC)
雷暴, 小雨
从 04日的 2000点(UTC)
风速6节,风向西南,有时为16节阵风
能見度: 8000
多云层高于2000英尺, 积雨云.
小阵雨
成为
从 05日的 01点(UTC)到 05日的 04点(UTC)
风速10节,风向,有时为23节阵风
多云层高于4000英尺, 积雨云.
短暂存在
从 05日的 04点(UTC)到 05日的 15点(UTC)
风速16节,风向北转西北,有时为29节阵风
多云层高于1600英尺, 积雨云.
雷暴, 小雨

TAF: UNNT 041400Z 0415/0515 27003G08MPS 9999 BKN040CB PROB40 TEMPO 0415/0420 -TSRA FM042000 23003G08MPS 8000 -SHRA BKN020CB BECMG 0501/0504 01005G12MPS BKN040CB TEMPO 0504/0515 34008G15MPS -TSRA BKN016CB

超过4000个机场的气象观测和天气预报(METAR&TAF报告)。

可查询的气象台以黄色和红色小点在地图上表示。

将鼠标移到小点上方,可查看气象台名称。

然后点击查看天气观测和预报。

如需切换地图:点击带黑十字的绿色按钮放大地图;点击带横线的绿色按钮缩小地图;或者点击绿色箭头查看邻近地区的地图。


METAR-TAF: